Tiempo atmosférico en la estación meteorológica de Andorra, Teruel (762 m.)



Fecha
DESCASC
Temp. máxima en grados centígrados (hora)
DESCASC
Temp. mínima en grados centígrados (hora)
DESCASC
Temp. media en grados centígrados
DESCASC
Racha de viento máxima en m/sg (hora)
DESCASC
Velocidad máxima media en intervalos de 10 minutos(hora)
DESCASC
Precipitaciones diarias en mm
DESCASC
Precipitaciones de 00:00 a 06:00 en mm
DESCASC
Precipitaciones de 06:00 a 12:00 en mm
DESCASC
Precipitaciones de 12:00 a 18:00 en mm
DESCASC
Precipitaciones de 18:00 a 24:00 en mm
DESCASC
28-02-2021 10.9 (13:10) 3.6 (03:10) 7.2 14.17 (15:50) 9.17 (15:50) 0 0 0 0 0
27-02-2021 13.5 (15:50) 4.4 (08:00) 9 6.67 (17:50) 5 (05:40) 0 0 0 0 0
26-02-2021 11.5 (13:20) 6.2 (07:10) 8.8 6.11 (13:00) 4.17 (05:50) 0 0 0 0 0
25-02-2021 11.1 (15:50) 4.6 (00:00) 7.9 7.22 (14:30) 5.28 (14:20) 0 0 0 0 0
24-02-2021 14.4 (15:30) 6.2 (00:00) 10.3 9.44 (03:40) 7.78 (03:40) 0 0 0 0 0
23-02-2021 11.2 (15:00) 3.6 (00:00) 7.4 9.17 (16:30) 7.5 (16:20) 0 0 0 0 0
22-02-2021 8.7 (00:30) 5.1 (00:00) 6.9 13.06 (08:20) 10.83 (06:50) 7.6 7.6 0 0 0
21-02-2021 11.6 (13:00) 7.3 (00:00) 9.5 15.28 (13:20) 11.67 (13:30) 0 0 0 0 0
20-02-2021 18.6 (15:20) 8.6 (00:00) 13.6 12.5 (23:50) 7.5 (19:10) 0 0 0 0 0
19-02-2021 17.2 (13:40) 7.8 (00:00) 12.5 9.72 (16:30) 7.22 (16:30) 0 0 0 0 0
18-02-2021 16.7 (14:10) 8.6 (00:00) 12.7 7.5 (23:10) 5.83 (14:40) 0 0 0 0 0
17-02-2021 14.9 (14:50) 7.5 (00:00) 11.2 9.17 (00:10) 7.78 (00:10) 0 0 0 0 0
16-02-2021 13.7 (19:10) 3.3 (00:00) 8.5 9.17 (23:59) 8.06 (23:59) 0 0 0 0 0
15-02-2021 10.2 (16:20) 3.7 (00:00) 6.9 7.78 (15:10) 6.39 (15:10) 0 0 0 0 0
14-02-2021 12.1 (13:10) 4.2 (00:00) 8.2 11.39 (15:00) 8.89 (15:00) 0 0 0 0 0
13-02-2021 11.5 (12:30) 4.3 (00:00) 7.9 18.61 (01:20) 14.44 (01:20) 0 0 0 0 0
12-02-2021 11.7 (05:00) 7.5 (00:00) 9.6 21.67 (20:40) 15 (20:40) 1.4 0 0.2 1.2 0
11-02-2021 16.5 (15:00) 4 (00:00) 10.3 14.17 (12:40) 10.83 (11:50) 0 0 0 0 0
10-02-2021 11.2 (16:40) 3.9 (00:00) 7.5 25 (10:30) 19.44 (10:30) 3.4 1.8 1.6 0 0
09-02-2021 13.8 (15:00) 5.5 (00:00) 9.7 25 (16:40) 18.89 (17:50) 0.4 0 0 0 0.4
08-02-2021 10.7 (13:40) 5.9 (00:00) 8.3 22.5 (13:50) 17.78 (12:50) 2.8 0 2.4 0.4 0
07-02-2021 9.2 (15:30) 1.7 (00:00) 5.4 16.67 (10:50) 13.61 (09:50) 0 0 0 0 0
06-02-2021 13.1 (11:50) 3.9 (00:00) 8.5 12.78 (19:00) 9.17 (09:20) 2.2 0 0 2 0.2
05-02-2021 14.6 (11:50) 8.3 (00:00) 11.5 13.06 (19:00) 8.61 (19:20) 0 0 0 0 0
04-02-2021 13.8 (13:20) 9.6 (00:00) 11.7 8.89 (14:00) 6.67 (14:00) 0 0 0 0 0
03-02-2021 16 (16:00) 7.3 (00:00) 11.7 8.61 (15:10) 7.22 (12:20) 0 0 0 0 0
02-02-2021 17.6 (16:20) 9.1 (04:10) 13.4 18.06 (02:10) 15.28 (02:20) 0 0 0 0 0
01-02-2021 15 (14:20) 8.9 (00:00) 11.9 28.61 (00:50) 21.39 (00:50) 0 0 0 0 0

Gráficas

Temp. máximas Temp. mínimas Temp. medias Precipitaciones Rachas de viento máximas Velocidades máximas media en intervalos de 10 minutos

Datos horarios

Fecha y hora oficial Temperatura (ºC) Velocidad del viento (km/h) Dirección del viento Racha (km/h) Dirección de racha Precipitación (mm) Presión (hPa) Tendencia (hPa) Humedad (%)
2021-03-02 23:00:00 7.3 9 Este 12 Este 0 -- -- 99
2021-03-02 22:00:00 7.2 6 Este 13 Este 0 -- -- 99
2021-03-02 21:00:00 7.3 9 Este 13 Este 0 -- -- 98
2021-03-02 20:00:00 7.3 12 Este 15 Este 0 -- -- 98
2021-03-02 19:00:00 7.3 12 Este 17 Este 0 -- -- 98
2021-03-02 18:00:00 7.7 14 Este 18 Este 0 -- -- 97
2021-03-02 17:00:00 7.9 13 Este 20 Este 0 -- -- 98
2021-03-02 16:00:00 7.6 13 Este 20 Este 0 -- -- 98
2021-03-02 15:00:00 7.5 14 Este 21 Este 0 -- -- 98
2021-03-02 14:00:00 7.5 17 Este 23 Este 0 -- -- 99
2021-03-02 13:00:00 7.3 13 Este 17 Este 0 -- -- 99
2021-03-02 12:00:00 7.2 9 Este 16 Este 0 -- -- 99
2021-03-02 11:00:00 7.2 10 Este 14 Este 0 -- -- 99
2021-03-02 10:00:00 6.8 10 Este 16 Este 0 -- -- 99
2021-03-02 09:00:00 6.5 0 Calma 12 Este 0 -- -- 99
2021-03-02 08:00:00 6.3 7 Este 10 Este 0 -- -- 99
2021-03-02 07:00:00 6.2 9 Este 10 Este 0 -- -- 98
2021-03-02 06:00:00 6 6 Este 15 Este 0 -- -- 98
2021-03-02 05:00:00 6 13 Este 18 Este 0 -- -- 98
2021-03-02 04:00:00 6 10 Este 16 Este 0 -- -- 98
2021-03-02 03:00:00 6.1 10 Este 13 Este 0.2 -- -- 97
2021-03-02 02:00:00 6.2 6 Este 9 Nordeste 0 -- -- 97
2021-03-02 01:00:00 6.5 3 Nordeste 16 Este 0 -- -- 97
2021-03-02 00:00:00 6.4 15 Este 19 Este 0 -- -- 98
2021-03-01 23:00:00 6.2 10 Este 20 Este 0 -- -- 98
2021-03-01 22:00:00 6.2 14 Este 19 Este 0 -- -- 98
2021-03-01 21:00:00 6.7 10 Este 19 Este 0 -- -- 98
2021-03-01 20:00:00 6.5 14 Este 21 Este 0 -- -- 98
2021-03-01 19:00:00 6.6 17 Este 25 Este 0.2 -- -- 98
2021-03-01 18:00:00 6.8 14 Este 22 Este 0.2 -- -- 97
2021-03-01 17:00:00 6.9 17 Este 22 Este 0 -- -- 97
2021-03-01 16:00:00 7.1 19 Este 29 Este 0 -- -- 96
2021-03-01 15:00:00 7.3 13 Este 22 Nordeste 0 -- -- 98
2021-03-01 14:00:00 7 16 Este 23 Este 0 -- -- 98
2021-03-01 13:00:00 6.6 17 Este 22 Este 0 -- -- 97
2021-03-01 12:00:00 6.4 12 Este 21 Este 0 -- -- 97
2021-03-01 11:00:00 6.1 13 Este 22 Este 0 -- -- 97
2021-03-01 10:00:00 6 14 Este 21 Este 0 -- -- 96
2021-03-01 09:00:00 5.7 14 Este 18 Este 0 -- -- 95
2021-03-01 08:00:00 5.5 8 Este 17 Este 0 -- -- 91
2021-03-01 07:00:00 6.1 10 Este 17 Este 0 -- -- 84
2021-03-01 06:00:00 5.2 9 Este 19 Este 0 -- -- 90
2021-03-01 05:00:00 5.5 8 Nordeste 15 Este 0 -- -- 86
2021-03-01 04:00:00 5.3 8 Este 18 Este 0 -- -- 86
2021-03-01 03:00:00 6.5 18 Este 32 Sudeste 0 -- -- 79
2021-03-01 02:00:00 6.7 18 Este 32 Sudeste 0 -- -- 78
2021-03-01 01:00:00 6.4 18 Este 26 Este 0 -- -- 80
2021-03-01 00:00:00 6.5 14 Sudeste 35 Sudeste 0 -- -- 78
2021-02-28 23:00:00 6.5 15 Este 30 Sudeste 0 -- -- 79
2021-02-28 22:00:00 6.2 10 Sudeste 27 Sudeste 0 -- -- 81
2021-02-28 21:00:00 6.9 13 Sudeste 33 Sudeste 0 -- -- 76
2021-02-28 20:00:00 7.3 13 Este 33 Sudeste 0 -- -- 77
2021-02-28 19:00:00 8 22 Sudeste 36 Sudeste 0 -- -- 75
2021-02-28 18:00:00 8.3 23 Sudeste 39 Sudeste 0 -- -- 77
2021-02-28 17:00:00 8.8 22 Sur 46 Sur 0 -- -- 74
2021-02-28 16:00:00 9.4 30 Sudeste 51 Sudeste 0 -- -- 71
2021-02-28 15:00:00 9.6 26 Sudeste 49 Este 0 -- -- 71
2021-02-28 14:00:00 10.6 27 Sudeste 50 Sudeste 0 -- -- 64
2021-02-28 13:00:00 10.8 23 Este 40 Sudeste 0 -- -- 66
2021-02-28 12:00:00 8.3 20 Nordeste 25 Este 0 -- -- 77
2021-02-28 11:00:00 8 17 Este 21 Este 0 -- -- 74
2021-02-28 10:00:00 6 15 Este 19 Este 0 -- -- 79
2021-02-28 09:00:00 4.9 8 Este 11 Sudeste 0 -- -- 84
2021-02-28 08:00:00 4.9 5 Sudoeste 15 Oeste 0 -- -- 80
2021-02-28 07:00:00 4.5 9 Sudoeste 15 Sudoeste 0 -- -- 82
2021-02-28 06:00:00 4.4 5 Oeste 10 Oeste 0 -- -- 81
2021-02-28 05:00:00 4.3 8 Oeste 17 Oeste 0 -- -- 82
2021-02-28 04:00:00 4 13 Oeste 23 Oeste 0 -- -- 81
2021-02-28 03:00:00 3.8 13 Oeste 19 Oeste 0 -- -- 80
2021-02-28 02:00:00 4.6 18 Oeste 27 Oeste 0 -- -- 78
2021-02-28 01:00:00 5.6 18 Oeste 26 Oeste 0 -- -- 76
2021-02-28 00:00:00 6.6 16 Oeste 22 Oeste 0 -- -- 75
2021-02-27 23:00:00 8 9 Oeste 18 Oeste 0 -- -- 68
2021-02-27 22:00:00 7.7 14 Oeste 17 Oeste 0 -- -- 71
2021-02-27 21:00:00 8.7 9 Oeste 16 Norte 0 -- -- 69
2021-02-27 20:00:00 9.3 13 Norte 19 Norte 0 -- -- 65
2021-02-27 19:00:00 10.1 13 Noroeste 19 Noroeste 0 -- -- 69
2021-02-27 18:00:00 12.2 15 Noroeste 24 Noroeste 0 -- -- 65
2021-02-27 17:00:00 13.5 13 Noroeste 23 Noroeste 0 -- -- 62
2021-02-27 16:00:00 13.3 9 Noroeste 20 Norte 0 -- -- 64
2021-02-27 15:00:00 13 10 Noroeste 22 Noroeste 0 -- -- 66
2021-02-27 14:00:00 11.5 9 Noroeste 22 Noroeste 0 -- -- 70
2021-02-27 13:00:00 10.3 9 Oeste 20 Noroeste 0 -- -- 76
2021-02-27 12:00:00 9.1 13 Oeste 22 Oeste 0 -- -- 80
2021-02-27 11:00:00 8 13 Oeste 18 Oeste 0 -- -- 92
2021-02-27 10:00:00 6.7 12 Oeste 18 Oeste 0 -- -- 98
2021-02-27 09:00:00 5.2 14 Oeste 18 Sudoeste 0 -- -- 98
2021-02-27 08:00:00 4.4 16 Oeste 21 Oeste 0 -- -- 98
2021-02-27 07:00:00 4.8 17 Oeste 21 Oeste 0 -- -- 98
2021-02-27 06:00:00 4.9 18 Oeste 21 Oeste 0 -- -- 97
2021-02-27 05:00:00 5.1 16 Oeste 19 Oeste 0 -- -- 97
2021-02-27 04:00:00 6.1 15 Oeste 19 Oeste 0 -- -- 97
2021-02-27 03:00:00 6 15 Oeste 18 Oeste 0 -- -- 96
2021-02-27 02:00:00 6.4 16 Oeste 17 Oeste 0 -- -- 96
2021-02-27 01:00:00 6.9 13 Oeste 17 Oeste 0 -- -- 95
2021-02-27 00:00:00 7.3 13 Oeste 17 Oeste 0 -- -- 94
2021-02-26 23:00:00 7.6 12 Oeste 14 Oeste 0 -- -- 93
2021-02-26 22:00:00 7.9 13 Oeste 15 Oeste 0 -- -- 92
2021-02-26 21:00:00 8.6 11 Oeste 13 Sudoeste 0 -- -- 89
2021-02-26 20:00:00 8.9 10 Sudoeste 12 Sudoeste 0 -- -- 88
2021-02-26 19:00:00 9.7 0 Calma 6 Nordeste 0 -- -- 84
2021-02-26 18:00:00 10.3 5 Nordeste 12 Nordeste 0 -- -- 82
2021-02-26 17:00:00 10.7 8 Nordeste 17 Nordeste 0 -- -- 80
2021-02-26 16:00:00 10.9 11 Nordeste 16 Nordeste 0 -- -- 79
2021-02-26 15:00:00 11.3 12 Nordeste 22 Nordeste 0 -- -- 77
2021-02-26 14:00:00 11.3 12 Nordeste 19 Nordeste 0 -- -- 79
2021-02-26 13:00:00 11 14 Nordeste 22 Nordeste 0 -- -- 81
2021-02-26 12:00:00 10.9 9 Nordeste 14 Nordeste 0 -- -- 81
2021-02-26 11:00:00 9.4 8 Nordeste 13 Nordeste 0 -- -- 87
2021-02-26 10:00:00 8.2 3 Oeste 9 Sudoeste 0 -- -- 95
2021-02-26 09:00:00 6.7 8 Sudoeste 10 Oeste 0 -- -- 96
2021-02-26 08:00:00 6.4 9 Oeste 13 Oeste 0 -- -- 96
2021-02-26 07:00:00 6.4 10 Oeste 16 Oeste 0 -- -- 95
2021-02-26 06:00:00 6.6 14 Oeste 18 Oeste 0 -- -- 94
2021-02-26 05:00:00 6.8 12 Oeste 15 Oeste 0 -- -- 93
2021-02-26 04:00:00 6.9 12 Oeste 15 Oeste 0 -- -- 92
2021-02-26 03:00:00 7 5 Oeste 14 Oeste 0 -- -- 92
2021-02-26 02:00:00 6.5 10 Oeste 15 Oeste 0 -- -- 92
2021-02-26 01:00:00 7.4 4 Oeste 5 Oeste 0 -- -- 89
2021-02-26 00:00:00 8.3 0 Calma 3 Oeste 0 -- -- 87
2021-02-25 23:00:00 9.1 0 Calma 4 Nordeste 0 -- -- 86
2021-02-25 22:00:00 9.3 2 Este 6 Este 0 -- -- 86
2021-02-25 21:00:00 9.4 0 Calma 6 Oeste 0 -- -- 82
2021-02-25 20:00:00 9.7 0 Calma 6 Oeste 0 -- -- 82
2021-02-25 19:00:00 9.9 4 Noroeste 11 Norte 0 -- -- 78
2021-02-25 18:00:00 10.6 6 Norte 15 Norte 0 -- -- 77
2021-02-25 17:00:00 10.9 11 Nordeste 19 Nordeste 0 -- -- 74
2021-02-25 16:00:00 11 15 Nordeste 24 Nordeste 0 -- -- 72
2021-02-25 15:00:00 10.7 16 Este 26 Este 0 -- -- 74
2021-02-25 14:00:00 10 19 Nordeste 24 Nordeste 0 -- -- 75
2021-02-25 13:00:00 10.3 15 Nordeste 21 Nordeste 0 -- -- 74
2021-02-25 12:00:00 9.9 11 Nordeste 17 Nordeste 0 -- -- 73
2021-02-25 11:00:00 9 9 Nordeste 14 Este 0 -- -- 72
2021-02-25 10:00:00 7.6 3 Este 12 Este 0 -- -- 72
2021-02-25 09:00:00 6.1 0 Calma 14 Este 0 -- -- 77
2021-02-25 08:00:00 6.3 7 Este 14 Sudoeste 0 -- -- 76
2021-02-25 07:00:00 4.6 14 Sudoeste 14 Sudoeste 0 -- -- 81
2021-02-25 06:00:00 4.9 9 Oeste 10 Oeste 0 -- -- 85
2021-02-25 05:00:00 5.6 0 Calma 14 Sudoeste 0 -- -- 81
2021-02-25 04:00:00 5.6 12 Sudoeste 16 Sur 0 -- -- 80
2021-02-25 03:00:00 5.8 12 Sudoeste 14 Sur 0 -- -- 81
2021-02-25 02:00:00 7 8 Sur 13 Sur 0 -- -- 77
2021-02-25 01:00:00 7.3 13 Sur 20 Sur 0 -- -- 81
2021-02-25 00:00:00 7.3 16 Sur 21 Sur 0 -- -- 83
2021-02-24 23:00:00 7.3 13 Sur 20 Sur 0 -- -- 86
2021-02-24 22:00:00 8.3 19 Sur 22 Sudoeste 0 -- -- 84
2021-02-24 21:00:00 10.2 17 Sur 22 Sur 0 -- -- 74
2021-02-24 20:00:00 11.1 10 Sudeste 23 Sudeste 0 -- -- 71
2021-02-24 19:00:00 12.2 18 Sudeste 25 Sudeste 0 -- -- 71
2021-02-24 18:00:00 13.4 12 Este 27 Este 0 -- -- 75
2021-02-24 17:00:00 14.4 19 Este 28 Este 0 -- -- 74
2021-02-24 16:00:00 14.2 21 Este 31 Nordeste 0 -- -- 73
2021-02-24 15:00:00 14.1 23 Este 29 Este 0 -- -- 74
2021-02-24 14:00:00 13.5 22 Este 30 Este 0 -- -- 73
2021-02-24 13:00:00 13.1 20 Nordeste 28 Este 0 -- -- 76
2021-02-24 12:00:00 13.3 19 Este 25 Este 0 -- -- 69
2021-02-24 11:00:00 11.8 9 Nordeste 13 Nordeste 0 -- -- 70
2021-02-24 10:00:00 9.8 3 Sur 8 Sudeste 0 -- -- 72
2021-02-24 09:00:00 7.5 4 Sur 10 Sudeste 0 -- -- 80
2021-02-24 08:00:00 6.9 3 Sur 7 Este 0 -- -- 83
2021-02-24 07:00:00 6.8 4 Sudoeste 10 Sudeste 0 -- -- 81
2021-02-24 06:00:00 6.7 5 Sur 15 Sur 0 -- -- 84
2021-02-24 05:00:00 6.8 14 Sudoeste 29 Sur 0 -- -- 83
2021-02-24 04:00:00 8.2 26 Sur 34 Sur 0 -- -- 80
2021-02-24 03:00:00 8.1 21 Sur 25 Sur 0 -- -- 81
2021-02-24 02:00:00 8.7 18 Sur 24 Sur 0 -- -- 77
2021-02-24 01:00:00 7.7 12 Sur 21 Sur 0 -- -- 81
2021-02-24 00:00:00 9.1 19 Sur 32 Sur 0 -- -- 76
2021-02-23 23:00:00 8.1 15 Sur 23 Sur 0 -- -- 85
2021-02-23 22:00:00 9 17 Sur 23 Sur 0 -- -- 81
2021-02-23 21:00:00 9.5 12 Este 14 Este 0 -- -- 80
2021-02-23 20:00:00 9.3 11 Este 18 Nordeste 0 -- -- 86
2021-02-23 19:00:00 9.7 15 Nordeste 22 Este 0 -- -- 84
2021-02-23 18:00:00 10.8 20 Este 27 Nordeste 0 -- -- 78
2021-02-23 17:00:00 11 23 Este 33 Este 0 -- -- 77
2021-02-23 16:00:00 10.9 26 Este 31 Este 0 -- -- 75
2021-02-23 15:00:00 11.2 21 Este 33 Nordeste 0 -- -- 72
2021-02-23 14:00:00 10.9 21 Nordeste 28 Este 0 -- -- 73
2021-02-23 13:00:00 10.8 21 Este 29 Este 0 -- -- 71
2021-02-23 12:00:00 10.2 14 Este 22 Este 0 -- -- 73
2021-02-23 11:00:00 9.2 5 Este 15 Sur 0 -- -- 75
2021-02-23 10:00:00 6.1 14 Sudoeste 18 Sudoeste 0 -- -- 86
2021-02-23 09:00:00 5.4 5 Sudeste 13 Sudeste 0 -- -- 84
2021-02-23 08:00:00 3.9 7 Sur 9 Sur 0 -- -- 88
2021-02-23 07:00:00 4 6 Sudoeste 11 Oeste 0 -- -- 92
2021-02-23 06:00:00 3.6 9 Oeste 13 Oeste 0 -- -- 94
2021-02-23 05:00:00 4.2 10 Oeste 13 Oeste 0 -- -- 93
2021-02-23 04:00:00 4.8 5 Oeste 10 Oeste 0 -- -- 93
2021-02-23 03:00:00 5.2 6 Sudoeste 10 Oeste 0 -- -- 90
2021-02-23 02:00:00 5.2 0 Calma 5 Noroeste 0 -- -- 89
2021-02-23 01:00:00 5.1 0 Calma 9 Noroeste 0 -- -- 90
2021-02-23 00:00:00 5.1 6 Noroeste 15 Oeste 0 -- -- 90
2021-02-22 23:00:00 5.2 13 Oeste 18 Oeste 0 -- -- 92
2021-02-22 22:00:00 5.3 8 Oeste 18 Oeste 0 -- -- 91
2021-02-22 21:00:00 5.2 10 Noroeste 26 Oeste 0 -- -- 91
2021-02-22 20:00:00 5.3 13 Oeste 21 Oeste 0 -- -- 90
2021-02-22 19:00:00 5.3 13 Oeste 26 Oeste 0 -- -- 90
2021-02-22 18:00:00 5.6 13 Noroeste 18 Norte 0 -- -- 90
2021-02-22 17:00:00 6.1 13 Noroeste 19 Noroeste 0 -- -- 88
2021-02-22 16:00:00 6.2 13 Noroeste 24 Noroeste 0 -- -- 87
2021-02-22 15:00:00 5.9 14 Noroeste 19 Noroeste 0 -- -- 87
2021-02-22 14:00:00 6.1 11 Noroeste 24 Oeste 0 -- -- 87
2021-02-22 13:00:00 5.9 22 Oeste 26 Oeste 0 -- -- 87
2021-02-22 12:00:00 6.2 17 Noroeste 31 Oeste 0 -- -- 84
2021-02-22 11:00:00 5.6 27 Oeste 42 Oeste 0 -- -- 85
2021-02-22 10:00:00 5.9 34 Oeste 46 Oeste 0 -- -- 83
2021-02-22 09:00:00 6.1 33 Oeste 47 Oeste 0 -- -- 84
2021-02-22 08:00:00 6.5 32 Oeste 45 Oeste 0 -- -- 84
2021-02-22 07:00:00 7 37 Sudoeste 46 Sudoeste 0 -- -- 82
2021-02-22 06:00:00 6.5 16 Sudoeste 26 Sudoeste 0 -- -- 90
2021-02-22 05:00:00 6.6 14 Sur 35 Sudoeste 0.6 -- -- 92
2021-02-22 04:00:00 7.2 30 Sudoeste 45 Sudoeste 6.8 -- -- 95
2021-02-22 03:00:00 8.6 4 Nordeste 20 Este 0.2 -- -- 96
2021-02-22 02:00:00 8.7 16 Este 29 Este 0 -- -- 96
2021-02-22 01:00:00 8.1 20 Este 25 Este 0 -- -- 94
2021-02-22 00:00:00 8.5 12 Este 21 Este 0 -- -- 94
2021-02-21 23:00:00 8.6 19 Este 24 Este 0 -- -- 94
2021-02-21 22:00:00 8.9 16 Este 32 Este 0 -- -- 94
2021-02-21 21:00:00 8.8 27 Este 35 Este 0 -- -- 94
2021-02-21 20:00:00 8.8 20 Este 36 Este 0 -- -- 93
2021-02-21 19:00:00 8.6 30 Este 41 Este 0 -- -- 94
2021-02-21 18:00:00 8.8 33 Este 45 Este 0 -- -- 91
2021-02-21 17:00:00 9.3 32 Este 49 Este 0 -- -- 88
2021-02-21 16:00:00 9.6 38 Este 49 Este 0 -- -- 87
2021-02-21 15:00:00 9.6 40 Este 50 Este 0 -- -- 86
2021-02-21 14:00:00 10.5 38 Este 55 Este 0 -- -- 77
2021-02-21 13:00:00 11.6 27 Este 49 Este 0 -- -- 67
2021-02-21 12:00:00 10.9 22 Sudeste 48 Sudeste 0 -- -- 71
2021-02-21 11:00:00 10.2 23 Sudeste 42 Sudeste 0 -- -- 72
2021-02-21 10:00:00 8.4 17 Este 42 Este 0 -- -- 79
2021-02-21 09:00:00 8 16 Este 49 Sudeste 0 -- -- 79
2021-02-21 08:00:00 7.8 20 Sudeste 37 Sudeste 0 -- -- 77
2021-02-21 07:00:00 7.4 12 Sudeste 38 Sudeste 0 -- -- 77
2021-02-21 06:00:00 7.4 21 Este 42 Sudeste 0 -- -- 75
2021-02-21 05:00:00 8.1 21 Sudeste 44 Sudeste 0 -- -- 67
2021-02-21 04:00:00 7.7 19 Sudeste 38 Sudeste 0 -- -- 71
2021-02-21 03:00:00 7.6 24 Este 42 Sudeste 0 -- -- 72
2021-02-21 02:00:00 7.6 21 Este 40 Sudeste 0 -- -- 73
2021-02-21 01:00:00 7.7 20 Este 42 Sudeste 0 -- -- 73
2021-02-21 00:00:00 9 24 Sur 45 Sur 0 -- -- 63
2021-02-20 23:00:00 10 9 Sudeste 43 Sudeste 0 -- -- 56
2021-02-20 22:00:00 10.3 19 Sudeste 32 Sur 0 -- -- 56
2021-02-20 21:00:00 8.8 7 Este 28 Sudeste 0 -- -- 70
2021-02-20 20:00:00 10.6 18 Sudeste 40 Sur 0 -- -- 63
2021-02-20 19:00:00 11.2 26 Sur 40 Sur 0 -- -- 63
2021-02-20 18:00:00 13.7 24 Sudeste 40 Sudeste 0 -- -- 52
2021-02-20 17:00:00 16.2 24 Sudeste 44 Sudeste 0 -- -- 41
2021-02-20 16:00:00 17.9 23 Sudeste 39 Sudeste 0 -- -- 32
2021-02-20 15:00:00 18.4 13 Sudeste 33 Este 0 -- -- 31
2021-02-20 14:00:00 15.3 14 Nordeste 23 Nordeste 0 -- -- 55
2021-02-20 13:00:00 14.1 16 Este 21 Este 0 -- -- 54
2021-02-20 12:00:00 16.3 15 Este 22 Este 0 -- -- 42
2021-02-20 11:00:00 14.9 14 Este 18 Este 0 -- -- 38
2021-02-20 10:00:00 14.1 9 Este 19 Sur 0 -- -- 41
2021-02-20 09:00:00 11.9 15 Sur 19 Sur 0 -- -- 38
2021-02-20 08:00:00 9.8 14 Sur 26 Sur 0 -- -- 48
2021-02-20 07:00:00 10.2 14 Sur 20 Sur 0 -- -- 47
2021-02-20 06:00:00 11 15 Sur 19 Sur 0 -- -- 45
2021-02-20 05:00:00 11.2 6 Sur 10 Oeste 0 -- -- 44
2021-02-20 04:00:00 10.5 10 Sudoeste 14 Oeste 0 -- -- 47
2021-02-20 03:00:00 10.6 10 Sudoeste 21 Sudoeste 0 -- -- 49
2021-02-20 02:00:00 10.6 18 Sur 26 Sur 0 -- -- 49
2021-02-20 01:00:00 10.6 18 Sudoeste 24 Sudoeste 0 -- -- 48
2021-02-20 00:00:00 10.7 15 Sur 21 Sur 0 -- -- 41
2021-02-19 23:00:00 11.2 15 Sur 20 Sur 0 -- -- 40
2021-02-19 22:00:00 11 8 Sudoeste 15 Sur 0 -- -- 48
2021-02-19 21:00:00 12.3 12 Sur 13 Sur 0 -- -- 48
2021-02-19 20:00:00 13.4 3 Sudeste 13 Nordeste 0 -- -- 52
2021-02-19 19:00:00 14.6 3 Nordeste 12 Este 0 -- -- 49
2021-02-19 18:00:00 15.6 8 Este 26 Este 0 -- -- 48
2021-02-19 17:00:00 16.1 17 Este 35 Este 0 -- -- 47
2021-02-19 16:00:00 16.2 22 Este 31 Este 0 -- -- 46
2021-02-19 15:00:00 16.2 21 Este 28 Nordeste 0 -- -- 43
2021-02-19 14:00:00 16.8 14 Este 23 Este 0 -- -- 43
2021-02-19 13:00:00 16.9 13 Nordeste 23 Este 0 -- -- 38
2021-02-19 12:00:00 16.1 13 Este 21 Este 0 -- -- 40
2021-02-19 11:00:00 15.2 4 Sur 13 Sur 0 -- -- 41
2021-02-19 10:00:00 11.4 8 Sur 16 Sudoeste 0 -- -- 45
2021-02-19 09:00:00 9.4 14 Sur 16 Sur 0 -- -- 46
2021-02-19 08:00:00 8 15 Sur 17 Sur 0 -- -- 50
2021-02-19 07:00:00 7.8 12 Sudoeste 16 Sudoeste 0 -- -- 53
2021-02-19 06:00:00 8.7 6 Sudoeste 15 Sudoeste 0 -- -- 50
2021-02-19 05:00:00 8.5 9 Sudoeste 26 Sudoeste 0 -- -- 52
2021-02-19 04:00:00 8.2 25 Sudoeste 28 Sudoeste 0 -- -- 54
2021-02-19 03:00:00 9 23 Sudoeste 25 Sudoeste 0 -- -- 50
2021-02-19 02:00:00 8.5 15 Sudoeste 23 Sudoeste 0 -- -- 51
2021-02-19 01:00:00 8.8 22 Sudoeste 25 Sudoeste 0 -- -- 50
2021-02-19 00:00:00 9.2 16 Sudoeste 27 Sudoeste 0 -- -- 48
2021-02-18 23:00:00 10.1 19 Oeste 22 Oeste 0 -- -- 47
2021-02-18 22:00:00 10.4 15 Sudoeste 22 Oeste 0 -- -- 47
2021-02-18 21:00:00 11.4 15 Oeste 19 Oeste 0 -- -- 44
2021-02-18 20:00:00 12.4 14 Oeste 18 Oeste 0 -- -- 44
2021-02-18 19:00:00 14.3 7 Sudeste 12 Sudoeste 0 -- -- 50
2021-02-18 18:00:00 14.8 10 Este 17 Este 0 -- -- 46
2021-02-18 17:00:00 15.1 9 Este 14 Este 0 -- -- 41
2021-02-18 16:00:00 15 12 Este 21 Nordeste 0 -- -- 53
2021-02-18 15:00:00 15.6 18 Nordeste 26 Este 0 -- -- 49
2021-02-18 14:00:00 16.6 15 Este 21 Nordeste 0 -- -- 42
2021-02-18 13:00:00 16.2 12 Nordeste 20 Nordeste 0 -- -- 41
2021-02-18 12:00:00 16 10 Nordeste 14 Nordeste 0 -- -- 45
2021-02-18 11:00:00 13.9 3 Oeste 19 Oeste 0 -- -- 42
2021-02-18 10:00:00 11.1 11 Oeste 14 Oeste 0 -- -- 50
2021-02-18 09:00:00 9.9 12 Sudoeste 14 Sudoeste 0 -- -- 44
2021-02-18 08:00:00 10.6 9 Sudoeste 17 Sudoeste 0 -- -- 41
2021-02-18 07:00:00 10.7 14 Sur 16 Sur 0 -- -- 40
2021-02-18 06:00:00 11.3 13 Sudoeste 23 Sudoeste 0 -- -- 38
2021-02-18 05:00:00 10.6 16 Sudoeste 23 Sudoeste 0 -- -- 41
2021-02-18 04:00:00 11.1 13 Oeste 20 Sudoeste 0 -- -- 42
2021-02-18 03:00:00 11.2 17 Sudoeste 26 Sudoeste 0 -- -- 42
2021-02-18 02:00:00 10.7 14 Sudoeste 22 Sudoeste 0 -- -- 45
2021-02-18 01:00:00 11.3 13 Sur 20 Sur 0 -- -- 43
2021-02-18 00:00:00 10.8 14 Sudoeste 26 Sudoeste 0 -- -- 48
2021-02-17 23:00:00 10.4 13 Sudoeste 23 Sudoeste 0 -- -- 55
2021-02-17 22:00:00 9.8 14 Oeste 17 Sudoeste 0 -- -- 76
2021-02-17 21:00:00 10.5 16 Sur 18 Sur 0 -- -- 74
2021-02-17 20:00:00 12.2 8 Este 13 Este 0 -- -- 67
2021-02-17 19:00:00 11.8 9 Este 15 Nordeste 0 -- -- 72
2021-02-17 18:00:00 13.1 14 Este 19 Este 0 -- -- 63
2021-02-17 17:00:00 13.9 16 Este 24 Este 0 -- -- 58
2021-02-17 16:00:00 14.3 18 Este 23 Este 0 -- -- 61
2021-02-17 15:00:00 14.9 15 Nordeste 24 Este 0 -- -- 57
2021-02-17 14:00:00 14.5 16 Este 24 Nordeste 0 -- -- 57
2021-02-17 13:00:00 14 11 Nordeste 18 Nordeste 0 -- -- 56
2021-02-17 12:00:00 13.7 9 Nordeste 14 Nordeste 0 -- -- 56
2021-02-17 11:00:00 11.2 9 Oeste 15 Sudoeste 0 -- -- 62
2021-02-17 10:00:00 9.3 14 Oeste 17 Oeste 0 -- -- 64
2021-02-17 09:00:00 8.4 17 Oeste 21 Oeste 0 -- -- 66
2021-02-17 08:00:00 7.5 18 Oeste 22 Oeste 0 -- -- 69
2021-02-17 07:00:00 8 17 Oeste 21 Oeste 0 -- -- 67
2021-02-17 06:00:00 8.5 16 Oeste 22 Oeste 0 -- -- 65
2021-02-17 05:00:00 8.6 19 Oeste 23 Oeste 0 -- -- 67
2021-02-17 04:00:00 9.2 22 Oeste 24 Oeste 0 -- -- 65
2021-02-17 03:00:00 9.5 19 Oeste 23 Oeste 0 -- -- 64
2021-02-17 02:00:00 10 19 Oeste 23 Oeste 0 -- -- 62
2021-02-17 01:00:00 10.7 14 Noroeste 33 Oeste 0 -- -- 58
2021-02-17 00:00:00 10.8 29 Oeste 33 Oeste 0 -- -- 56
2021-02-16 23:00:00 11.4 28 Sudoeste 31 Sudoeste 0 -- -- 55
2021-02-16 22:00:00 12.3 9 Noroeste 25 Oeste 0 -- -- 54
2021-02-16 21:00:00 12.6 15 Oeste 24 Oeste 0 -- -- 56
2021-02-16 20:00:00 12.7 14 Oeste 21 Oeste 0 -- -- 57
2021-02-16 19:00:00 13.6 14 Oeste 26 Oeste 0 -- -- 53
2021-02-16 18:00:00 13.3 6 Sudoeste 12 Este 0 -- -- 70
2021-02-16 17:00:00 12.6 10 Este 15 Nordeste 0 -- -- 69
2021-02-16 16:00:00 12.7 8 Este 19 Nordeste 0 -- -- 66
2021-02-16 15:00:00 12.7 12 Nordeste 21 Este 0 -- -- 68
2021-02-16 14:00:00 12.7 14 Este 20 Nordeste 0 -- -- 67
2021-02-16 13:00:00 11.1 11 Este 19 Este 0 -- -- 65
2021-02-16 12:00:00 9.4 9 Este 13 Nordeste 0 -- -- 77
2021-02-16 11:00:00 8.4 10 Nordeste 14 Nordeste 0 -- -- 80
2021-02-16 10:00:00 6.4 2 Norte 11 Sur 0 -- -- 90
2021-02-16 09:00:00 3.9 11 Sur 13 Sur 0 -- -- 96
2021-02-16 08:00:00 3.5 7 Sur 9 Sudoeste 0 -- -- 97
2021-02-16 07:00:00 3.6 6 Sudoeste 7 Sur 0 -- -- 96
2021-02-16 06:00:00 4.2 7 Sudoeste 9 Sudoeste 0 -- -- 96
2021-02-16 05:00:00 3.9 5 Sudoeste 9 Sudoeste 0 -- -- 96
2021-02-16 04:00:00 4.7 3 Sur 5 Este 0 -- -- 91
2021-02-16 03:00:00 5.4 4 Sudoeste 12 Sur 0 -- -- 93
2021-02-16 02:00:00 5.4 9 Sudoeste 10 Sudoeste 0 -- -- 92
2021-02-16 01:00:00 6 4 Sur 7 Este 0 -- -- 95
2021-02-16 00:00:00 6.1 2 Sudeste 9 Oeste 0 -- -- 96
2021-02-15 23:00:00 5 8 Oeste 10 Oeste 0 -- -- 95
2021-02-15 22:00:00 6.3 6 Sudoeste 20 Sudeste 0 -- -- 91
2021-02-15 21:00:00 7.6 13 Sur 28 Sur 0 -- -- 90
2021-02-15 20:00:00 7.7 17 Sudeste 25 Sudeste 0 -- -- 91
2021-02-15 19:00:00 8 12 Este 17 Este 0 -- -- 91
2021-02-15 18:00:00 9.5 14 Este 21 Nordeste 0 -- -- 85
2021-02-15 17:00:00 10.1 18 Nordeste 26 Este 0 -- -- 82
2021-02-15 16:00:00 9.8 20 Nordeste 28 Nordeste 0 -- -- 84
2021-02-15 15:00:00 9.2 22 Este 28 Este 0 -- -- 85
2021-02-15 14:00:00 8.6 20 Este 25 Este 0 -- -- 82
2021-02-15 13:00:00 8.7 14 Nordeste 20 Nordeste 0 -- -- 82
2021-02-15 12:00:00 8.6 10 Este 15 Este 0 -- -- 83
2021-02-15 11:00:00 8.3 7 Este 12 Este 0 -- -- 82
2021-02-15 10:00:00 5.7 3 Este 8 Sudoeste 0 -- -- 87
2021-02-15 09:00:00 4.8 10 Sur 14 Sur 0 -- -- 90
2021-02-15 08:00:00 3.7 8 Sudoeste 12 Sur 0 -- -- 91
2021-02-15 07:00:00 4.3 3 Sur 16 Sur 0 -- -- 90
2021-02-15 06:00:00 4.7 12 Sur 14 Sur 0 -- -- 87
2021-02-15 05:00:00 5.5 6 Sudeste 13 Sudeste 0 -- -- 85
2021-02-15 04:00:00 5.4 6 Sudeste 10 Este 0 -- -- 87
2021-02-15 03:00:00 5 7 Este 12 Nordeste 0 -- -- 87
2021-02-15 02:00:00 6.1 12 Sur 21 Sur 0 -- -- 82
2021-02-15 01:00:00 6.1 15 Sur 26 Sudeste 0 -- -- 83
2021-02-15 00:00:00 6.2 16 Sur 29 Sur 0 -- -- 83
2021-02-14 23:00:00 6.2 21 Sur 33 Sur 0 -- -- 84
2021-02-14 22:00:00 6.1 21 Sur 34 Sur 0 -- -- 84
2021-02-14 21:00:00 6.5 14 Sur 30 Sudeste 0 -- -- 84
2021-02-14 20:00:00 7.1 17 Sudeste 31 Sur 0 -- -- 83
2021-02-14 19:00:00 7.5 20 Sudeste 32 Sudeste 0 -- -- 83
2021-02-14 18:00:00 8.6 21 Sudeste 36 Sudeste 0 -- -- 78
2021-02-14 17:00:00 10 17 Este 37 Este 0 -- -- 70
2021-02-14 16:00:00 10.9 19 Este 40 Este 0 -- -- 66
2021-02-14 15:00:00 11.1 32 Este 41 Este 0 -- -- 65
2021-02-14 14:00:00 12 19 Este 31 Nordeste 0 -- -- 64
2021-02-14 13:00:00 11.8 19 Este 28 Nordeste 0 -- -- 66
2021-02-14 12:00:00 11.3 17 Este 26 Este 0 -- -- 64
2021-02-14 11:00:00 10.3 9 Este 12 Este 0 -- -- 69
2021-02-14 10:00:00 9.1 6 Este 9 Nordeste 0 -- -- 72
2021-02-14 09:00:00 7.5 2 Sur 6 Sudoeste 0 -- -- 77
2021-02-14 08:00:00 5.7 6 Sudoeste 13 Oeste 0 -- -- 82
2021-02-14 07:00:00 4.6 12 Oeste 19 Oeste 0 -- -- 84
2021-02-14 06:00:00 4.7 16 Oeste 19 Oeste 0 -- -- 83
2021-02-14 05:00:00 4.5 17 Oeste 20 Oeste 0 -- -- 82
2021-02-14 04:00:00 4.2 18 Oeste 22 Oeste 0 -- -- 84
2021-02-14 03:00:00 5 18 Oeste 23 Oeste 0 -- -- 80
2021-02-14 02:00:00 4.8 18 Oeste 25 Oeste 0 -- -- 82
2021-02-14 01:00:00 5.3 21 Oeste 25 Oeste 0 -- -- 80
2021-02-14 00:00:00 5.9 21 Oeste 28 Oeste 0 -- -- 79
2021-02-13 23:00:00 6 22 Oeste 26 Oeste 0 -- -- 84
2021-02-13 22:00:00 7.5 23 Oeste 32 Oeste 0 -- -- 77
2021-02-13 21:00:00 7.9 23 Oeste 28 Noroeste 0 -- -- 75
2021-02-13 20:00:00 9 19 Oeste 34 Oeste 0 -- -- 68
2021-02-13 19:00:00 9.5 26 Oeste 34 Oeste 0 -- -- 65
2021-02-13 18:00:00 10 25 Oeste 32 Oeste 0 -- -- 62
2021-02-13 17:00:00 10 22 Oeste 33 Oeste 0 -- -- 62
2021-02-13 16:00:00 10.7 17 Oeste 49 Oeste 0 -- -- 63
2021-02-13 15:00:00 10.8 41 Oeste 60 Oeste 0 -- -- 63
2021-02-13 14:00:00 10.9 47 Oeste 58 Oeste 0 -- -- 65
2021-02-13 13:00:00 10.9 45 Oeste 57 Oeste 0 -- -- 67
2021-02-13 08:00:00 -- -- -- -- -- -- -- -- --
2021-02-13 07:00:00 5.2 27 Oeste 41 Oeste 0 -- -- 80
2021-02-13 06:00:00 6.1 32 Oeste 54 Oeste 0 -- -- 78
2021-02-13 05:00:00 6.4 48 Oeste 55 Oeste 0 -- -- 79
2021-02-13 04:00:00 6.4 37 Oeste 58 Oeste 0 -- -- 81
2021-02-13 03:00:00 6.8 48 Oeste 58 Oeste 0 -- -- 79
2021-02-13 02:00:00 6.8 40 Oeste 67 Oeste 0 -- -- 80
2021-02-13 01:00:00 7.3 43 Oeste 58 Oeste 0 -- -- 79
2021-02-13 00:00:00 7.5 35 Oeste 48 Oeste 0 -- -- 79
2021-02-12 23:00:00 8.2 35 Oeste 60 Noroeste 0 -- -- 75
2021-02-12 22:00:00 8.6 41 Oeste 68 Oeste 0 -- -- 76
2021-02-12 21:00:00 9 49 Noroeste 78 Noroeste 0 -- -- 75
2021-02-12 20:00:00 9.3 36 Oeste 55 Noroeste 0 -- -- 80
2021-02-12 19:00:00 8.9 40 Oeste 62 Oeste 0 -- -- 88
2021-02-12 18:00:00 8.3 27 Oeste 42 Oeste 0 -- -- 91
2021-02-12 17:00:00 8.4 35 Oeste 53 Noroeste 0.4 -- -- 88
2021-02-12 16:00:00 8.1 41 Noroeste 55 Oeste 0.8 -- -- 90
2021-02-12 15:00:00 9.8 29 Noroeste 62 Oeste 0 -- -- 83
2021-02-12 14:00:00 11.4 42 Oeste 62 Oeste 0 -- -- 70
2021-02-12 13:00:00 10.8 44 Oeste 61 Oeste 0 -- -- 74
2021-02-12 12:00:00 9.8 40 Oeste 62 Oeste 0.2 -- -- 79
2021-02-12 11:00:00 9.6 47 Oeste 56 Oeste 0 -- -- 82
2021-02-12 10:00:00 10.3 16 Oeste 29 Sudoeste 0 -- -- 82
2021-02-12 09:00:00 10.3 21 Oeste 23 Sudoeste 0 -- -- 79
2021-02-12 08:00:00 10.6 12 Oeste 14 Oeste 0 -- -- 76
2021-02-12 07:00:00 10.6 13 Oeste 15 Oeste 0 -- -- 77
2021-02-12 06:00:00 11.2 6 Sur 12 Sudoeste 0 -- -- 74
2021-02-12 05:00:00 11.7 6 Sudoeste 17 Sudoeste 0 -- -- 72
2021-02-12 04:00:00 11.5 14 Sur 24 Sudoeste 0 -- -- 73
2021-02-12 03:00:00 11.3 14 Sudoeste 28 Sudoeste 0 -- -- 74
2021-02-12 02:00:00 10.6 17 Sudoeste 35 Oeste 0 -- -- 76
2021-02-12 01:00:00 11.4 32 Oeste 37 Oeste 0 -- -- 74
2021-02-12 00:00:00 11 31 Oeste 36 Oeste 0 -- -- 73
2021-02-11 23:00:00 11.6 31 Oeste 38 Sudoeste 0 -- -- 69
2021-02-11 22:00:00 11.7 24 Sudoeste 37 Sudoeste 0 -- -- 68
2021-02-11 21:00:00 11.5 27 Sudoeste 34 Sudoeste 0 -- -- 69
2021-02-11 20:00:00 11.9 32 Sudoeste 42 Sudoeste 0 -- -- 69
2021-02-11 19:00:00 12.5 21 Sudoeste 28 Oeste 0 -- -- 69
2021-02-11 18:00:00 13.9 27 Oeste 44 Oeste 0 -- -- 65
2021-02-11 17:00:00 14.6 23 Oeste 36 Oeste 0 -- -- 62
2021-02-11 16:00:00 16.4 29 Oeste 41 Oeste 0 -- -- 56
2021-02-11 15:00:00 16.5 27 Oeste 41 Oeste 0 -- -- 56
2021-02-11 14:00:00 15.6 26 Oeste 46 Oeste 0 -- -- 59
2021-02-11 13:00:00 15 30 Oeste 51 Oeste 0 -- -- 62
2021-02-11 12:00:00 13.9 32 Oeste 50 Oeste 0 -- -- 64
2021-02-11 11:00:00 12.5 33 Oeste 44 Sudoeste 0 -- -- 67
2021-02-11 10:00:00 10.5 19 Oeste 27 Oeste 0 -- -- 66
2021-02-11 09:00:00 8.2 19 Oeste 32 Sudoeste 0 -- -- 68
2021-02-11 08:00:00 8.3 27 Sudoeste 37 Sudoeste 0 -- -- 63
2021-02-11 07:00:00 7.2 18 Oeste 24 Sudoeste 0 -- -- 58
2021-02-11 06:00:00 6.8 13 Oeste 37 Oeste 0 -- -- 62
2021-02-11 05:00:00 7.3 24 Oeste 35 Sudoeste 0 -- -- 63
2021-02-11 04:00:00 6.4 24 Oeste 37 Oeste 0 -- -- 72
2021-02-11 03:00:00 5.2 20 Oeste 31 Oeste 0 -- -- 77
2021-02-11 02:00:00 4.8 16 Oeste 24 Oeste 0 -- -- 75
2021-02-11 01:00:00 4.2 21 Oeste 23 Oeste 0 -- -- 78
2021-02-11 00:00:00 5 15 Oeste 26 Oeste 0 -- -- 74
2021-02-10 23:00:00 5.1 28 Sudoeste 31 Oeste 0 -- -- 73
2021-02-10 22:00:00 5.8 21 Oeste 26 Oeste 0 -- -- 70
2021-02-10 21:00:00 6.3 20 Oeste 31 Oeste 0 -- -- 68
2021-02-10 20:00:00 7.3 26 Oeste 46 Oeste 0 -- -- 65
2021-02-10 19:00:00 8.3 34 Oeste 51 Oeste 0 -- -- 61
2021-02-10 18:00:00 10.3 41 Oeste 51 Oeste 0 -- -- 54
2021-02-10 17:00:00 11.1 35 Oeste 54 Noroeste 0 -- -- 53
2021-02-10 16:00:00 11 40 Oeste 53 Oeste 0 -- -- 53
2021-02-10 15:00:00 10.5 37 Oeste 59 Oeste 0 -- -- 56
2021-02-10 14:00:00 9.8 42 Oeste 58 Oeste 0 -- -- 59
2021-02-10 13:00:00 9.5 36 Oeste 60 Oeste 0 -- -- 63
2021-02-10 12:00:00 8.5 55 Oeste 80 Oeste 0 -- -- 67
2021-02-10 11:00:00 7.4 64 Oeste 90 Oeste 0 -- -- 71
2021-02-10 10:00:00 6.3 65 Oeste 85 Oeste 0 -- -- 76
2021-02-10 09:00:00 4.9 60 Oeste 77 Oeste 0 -- -- 81
2021-02-10 08:00:00 4 10 Oeste 33 Oeste 0.4 -- -- 93
2021-02-10 07:00:00 4.6 22 Noroeste 34 Oeste 1.2 -- -- 92
2021-02-10 06:00:00 5.3 30 Oeste 49 Oeste 1 -- -- 88
2021-02-10 05:00:00 7 27 Sudoeste 62 Sudoeste 0 -- -- 75
2021-02-10 04:00:00 6.1 15 Oeste 64 Sudoeste 0 -- -- 78
2021-02-10 03:00:00 6.8 42 Sudoeste 62 Sudoeste 0 -- -- 76
2021-02-10 02:00:00 5.6 45 Sudoeste 63 Sudoeste 0 -- -- 83
2021-02-10 01:00:00 5.8 31 Sudoeste 45 Sudoeste 0.8 -- -- 89
2021-02-10 00:00:00 5.5 18 Oeste 37 Noroeste 0.4 -- -- 89
2021-02-09 23:00:00 6.3 13 Noroeste 55 Oeste 0 -- -- 78
2021-02-09 22:00:00 7.2 30 Oeste 40 Sudoeste 0 -- -- 72
2021-02-09 21:00:00 7.5 37 Oeste 81 Sudoeste 0 -- -- 70
2021-02-09 20:00:00 8.1 65 Sudoeste 82 Sudoeste 0 -- -- 67
2021-02-09 19:00:00 8.1 50 Sudoeste 76 Oeste 0 -- -- 73
2021-02-09 18:00:00 9.3 64 Oeste 82 Oeste 0 -- -- 74
2021-02-09 17:00:00 12.8 55 Sudoeste 90 Oeste 0 -- -- 56
2021-02-09 16:00:00 12.8 45 Sudoeste 82 Sudoeste 0 -- -- 55
2021-02-09 15:00:00 13.8 36 Sudoeste 51 Sudoeste 0 -- -- 54
2021-02-09 14:00:00 12.2 31 Sudoeste 52 Sudoeste 0 -- -- 55
2021-02-09 13:00:00 10.8 25 Sudoeste 42 Sudoeste 0 -- -- 58
2021-02-09 12:00:00 10.1 19 Sur 33 Sur 0 -- -- 61
2021-02-09 11:00:00 9 18 Sudoeste 44 Sudoeste 0 -- -- 63
2021-02-09 10:00:00 8.3 31 Sudoeste 47 Sudoeste 0 -- -- 65
2021-02-09 09:00:00 7.5 39 Oeste 57 Oeste 0 -- -- 67
2021-02-09 08:00:00 7.6 37 Oeste 58 Oeste 0 -- -- 64
2021-02-09 07:00:00 6.9 17 Sudoeste 29 Oeste 0 -- -- 70
2021-02-09 06:00:00 7 24 Oeste 48 Oeste 0 -- -- 72
2021-02-09 05:00:00 6.7 33 Oeste 55 Oeste 0 -- -- 74
2021-02-09 04:00:00 6.7 39 Oeste 50 Oeste 0 -- -- 75
2021-02-09 03:00:00 6.4 33 Oeste 41 Oeste 0 -- -- 77
2021-02-09 02:00:00 6.3 28 Oeste 50 Sudoeste 0 -- -- 76
2021-02-09 01:00:00 6.4 36 Oeste 48 Oeste 0 -- -- 76
2021-02-09 00:00:00 6.4 43 Oeste 55 Oeste 0 -- -- 76
2021-02-08 23:00:00 6.7 45 Sudoeste 61 Oeste 0 -- -- 73
2021-02-08 22:00:00 7 44 Oeste 62 Oeste 0 -- -- 71
2021-02-08 21:00:00 7.6 41 Oeste 55 Oeste 0 -- -- 71
2021-02-08 20:00:00 7.4 33 Oeste 43 Oeste 0 -- -- 72
2021-02-08 19:00:00 7.5 45 Oeste 64 Oeste 0 -- -- 72
2021-02-08 18:00:00 6.9 34 Oeste 57 Oeste 0.4 -- -- 82
2021-02-08 17:00:00 7.6 40 Oeste 59 Oeste 0 -- -- 78
2021-02-08 16:00:00 8.9 30 Oeste 63 Oeste 0 -- -- 71
2021-02-08 15:00:00 9.7 46 Oeste 76 Oeste 0 -- -- 61
2021-02-08 14:00:00 10.6 62 Oeste 81 Oeste 0 -- -- 59
2021-02-08 13:00:00 9.9 61 Oeste 78 Oeste 0 -- -- 65
2021-02-08 12:00:00 6.9 32 Oeste 62 Sudoeste 0.2 -- -- 83
2021-02-08 11:00:00 6.1 31 Oeste 59 Oeste 0.6 -- -- 87
2021-02-08 10:00:00 6 37 Oeste 67 Sudoeste 0.8 -- -- 86
2021-02-08 09:00:00 6.2 40 Oeste 50 Sudoeste 0.8 -- -- 85
2021-02-08 08:00:00 7.5 37 Sudoeste 49 Sudoeste 0 -- -- 72
2021-02-08 07:00:00 7.8 32 Sudoeste 56 Sudoeste 0 -- -- 66
2021-02-08 06:00:00 8 25 Oeste 49 Sudoeste 0 -- -- 65
2021-02-08 05:00:00 8.4 37 Sudoeste 45 Sudoeste 0 -- -- 64
2021-02-08 04:00:00 7.6 19 Oeste 29 Oeste 0 -- -- 69
2021-02-08 03:00:00 7.5 30 Oeste 44 Oeste 0 -- -- 70
2021-02-08 02:00:00 7.5 27 Oeste 53 Oeste 0 -- -- 70
2021-02-08 01:00:00 7.4 42 Oeste 51 Sudoeste 0 -- -- 71
2021-02-08 00:00:00 7 19 Oeste 30 Oeste 0 -- -- 71
2021-02-07 23:00:00 6.6 10 Oeste 19 Oeste 0 -- -- 69
2021-02-07 22:00:00 5.9 10 Oeste 16 Oeste 0 -- -- 69
2021-02-07 21:00:00 6.1 15 Oeste 32 Oeste 0 -- -- 67
2021-02-07 20:00:00 6.3 15 Oeste 24 Oeste 0 -- -- 63
2021-02-07 19:00:00 7 17 Oeste 30 Oeste 0 -- -- 58
2021-02-07 18:00:00 7.4 25 Oeste 40 Oeste 0 -- -- 53
2021-02-07 17:00:00 8 32 Oeste 50 Oeste 0 -- -- 51
2021-02-07 16:00:00 8.8 34 Oeste 46 Oeste 0 -- -- 51
2021-02-07 15:00:00 8.5 38 Oeste 49 Oeste 0 -- -- 53
2021-02-07 14:00:00 7.7 35 Oeste 46 Oeste 0 -- -- 54
2021-02-07 13:00:00 7.6 36 Oeste 51 Oeste 0 -- -- 57
2021-02-07 12:00:00 6.3 44 Oeste 56 Oeste 0 -- -- 61
2021-02-07 11:00:00 5 45 Oeste 60 Oeste 0 -- -- 65
2021-02-07 10:00:00 3.9 47 Oeste 59 Oeste 0 -- -- 67
2021-02-07 09:00:00 2.6 39 Oeste 56 Oeste 0 -- -- 72
2021-02-07 08:00:00 2 36 Oeste 53 Oeste 0 -- -- 76
2021-02-07 07:00:00 2.5 39 Oeste 46 Oeste 0 -- -- 76
2021-02-07 06:00:00 2.8 34 Oeste 53 Oeste 0 -- -- 79
2021-02-07 05:00:00 3.2 33 Oeste 48 Oeste 0 -- -- 80
2021-02-07 04:00:00 3.5 29 Oeste 41 Noroeste 0 -- -- 80
2021-02-07 03:00:00 3.8 24 Oeste 50 Oeste 0 -- -- 81
2021-02-07 02:00:00 4 30 Oeste 47 Oeste 0 -- -- 84
2021-02-07 01:00:00 4.3 31 Oeste 44 Oeste 0 -- -- 87
2021-02-07 00:00:00 3.9 26 Oeste 33 Oeste 0 -- -- 92
2021-02-06 23:00:00 4.4 25 Oeste 36 Oeste 0 -- -- 91
2021-02-06 22:00:00 5.1 25 Oeste 35 Oeste 0 -- -- 92
2021-02-06 21:00:00 5.7 21 Oeste 36 Noroeste 0 -- -- 90
2021-02-06 20:00:00 5.8 25 Oeste 46 Noroeste 0.2 -- -- 92
2021-02-06 19:00:00 6.3 31 Noroeste 46 Noroeste 0 -- -- 92
2021-02-06 18:00:00 7.3 25 Noroeste 36 Noroeste 0.4 -- -- 89
2021-02-06 17:00:00 8 10 Oeste 37 Oeste 1.6 -- -- 86
2021-02-06 16:00:00 11.2 10 Nordeste 21 Nordeste 0 -- -- 69
2021-02-06 15:00:00 11.8 14 Nordeste 27 Nordeste 0 -- -- 66
2021-02-06 14:00:00 12.8 15 Norte 31 Oeste 0 -- -- 59
2021-02-06 13:00:00 12.1 15 Oeste 27 Oeste 0 -- -- 59
2021-02-06 12:00:00 12.8 12 Sudoeste 23 Sudoeste 0 -- -- 56
2021-02-06 11:00:00 11.4 6 Sudoeste 24 Sudoeste 0 -- -- 64
2021-02-06 10:00:00 10.4 12 Sudoeste 45 Sudoeste 0 -- -- 69
2021-02-06 09:00:00 8.5 30 Sudoeste 36 Sudoeste 0 -- -- 75
2021-02-06 08:00:00 8.1 8 Oeste 21 Sur 0 -- -- 79
2021-02-06 07:00:00 8.3 13 Sudoeste 26 Sudoeste 0 -- -- 80
2021-02-06 06:00:00 7.1 19 Oeste 32 Oeste 0 -- -- 89
2021-02-06 05:00:00 6.9 21 Oeste 32 Oeste 0 -- -- 92
2021-02-06 04:00:00 7.7 14 Sudoeste 23 Oeste 0 -- -- 84
2021-02-06 03:00:00 8.1 3 Noroeste 21 Este 0 -- -- 81
2021-02-06 02:00:00 7.4 11 Oeste 22 Noroeste 0 -- -- 89
2021-02-06 01:00:00 7.4 15 Oeste 30 Oeste 0 -- -- 87
2021-02-06 00:00:00 9.2 7 Sudeste 23 Este 0 -- -- 73
2021-02-05 23:00:00 9.4 7 Este 26 Sudeste 0 -- -- 71
2021-02-05 22:00:00 9.4 15 Sudeste 30 Sudeste 0 -- -- 73
2021-02-05 21:00:00 8.9 20 Sur 42 Sudeste 0 -- -- 79
2021-02-05 20:00:00 8.8 24 Sur 46 Sudeste 0 -- -- 81
2021-02-05 19:00:00 9.7 30 Sudeste 47 Sudeste 0 -- -- 77
2021-02-05 18:00:00 11 23 Sur 37 Sudeste 0 -- -- 72
2021-02-05 17:00:00 12.3 14 Sur 33 Sudeste 0 -- -- 67
2021-02-05 16:00:00 13.2 21 Sudeste 37 Sudeste 0 -- -- 64
2021-02-05 15:00:00 13.7 21 Este 33 Este 0 -- -- 62
2021-02-05 14:00:00 13.5 14 Sudeste 35 Sudeste 0 -- -- 61
2021-02-05 13:00:00 13.4 24 Este 38 Este 0 -- -- 61
2021-02-05 12:00:00 14.6 21 Sudeste 30 Sudeste 0 -- -- 52
2021-02-05 11:00:00 14.2 14 Sudeste 30 Este 0 -- -- 52
2021-02-05 10:00:00 13.4 21 Sur 40 Sur 0 -- -- 53
2021-02-05 09:00:00 12.3 24 Sudeste 34 Sudeste 0 -- -- 56
2021-02-05 08:00:00 11.5 8 Sudeste 24 Sudeste 0 -- -- 61
2021-02-05 07:00:00 9.9 11 Sudeste 22 Este 0 -- -- 65
2021-02-05 06:00:00 13.1 15 Este 22 Este 0 -- -- 51
2021-02-05 05:00:00 12 11 Este 20 Este 0 -- -- 60
2021-02-05 04:00:00 10 3 Nordeste 13 Sur 0 -- -- 77
2021-02-05 03:00:00 9.3 8 Sur 15 Sur 0 -- -- 80
2021-02-05 02:00:00 10.2 4 Este 10 Nordeste 0 -- -- 83
2021-02-05 01:00:00 10.2 9 Nordeste 21 Norte 0 -- -- 80
2021-02-05 00:00:00 11.6 6 Oeste 10 Oeste 0 -- -- 69
2021-02-04 23:00:00 12.7 8 Sur 14 Sur 0 -- -- 59
2021-02-04 22:00:00 12.5 11 Sur 15 Sur 0 -- -- 65
2021-02-04 21:00:00 13 5 Sudeste 11 Sudeste 0 -- -- 63
2021-02-04 20:00:00 12.6 6 Este 12 Sur 0 -- -- 72
2021-02-04 19:00:00 11.5 5 Sudoeste 11 Oeste 0 -- -- 80
2021-02-04 18:00:00 11.9 5 Noroeste 13 Nordeste 0 -- -- 77
2021-02-04 17:00:00 12.7 9 Norte 21 Norte 0 -- -- 76
2021-02-04 16:00:00 13.2 15 Nordeste 27 Este 0 -- -- 72
2021-02-04 15:00:00 13.7 20 Este 28 Este 0 -- -- 63
2021-02-04 14:00:00 13.5 24 Este 32 Este 0 -- -- 62
2021-02-04 13:00:00 13.4 13 Este 17 Nordeste 0 -- -- 65
2021-02-04 12:00:00 11.7 3 Norte 12 Nordeste 0 -- -- 71
2021-02-04 11:00:00 10.9 5 Nordeste 10 Este 0 -- -- 69
2021-02-04 10:00:00 10 5 Oeste 12 Oeste 0 -- -- 72
2021-02-04 09:00:00 11.3 3 Norte 8 Nordeste 0 -- -- 65
2021-02-04 08:00:00 11.3 2 Norte 5 Oeste 0 -- -- 63
2021-02-04 07:00:00 11.6 3 Sudoeste 8 Oeste 0 -- -- 62
2021-02-04 06:00:00 11.1 4 Sudoeste 10 Oeste 0 -- -- 66
2021-02-04 05:00:00 10.6 6 Oeste 9 Sudoeste 0 -- -- 68
2021-02-04 04:00:00 10 9 Sudoeste 10 Sur 0 -- -- 71
2021-02-04 03:00:00 10.7 4 Sur 12 Sudeste 0 -- -- 70
2021-02-04 02:00:00 11.7 4 Sur 15 Sur 0 -- -- 67
2021-02-04 01:00:00 11.5 12 Sur 14 Sur 0 -- -- 68
2021-02-04 00:00:00 11.4 11 Sur 15 Sur 0 -- -- 69
2021-02-03 23:00:00 11.5 10 Sur 13 Sur 0 -- -- 69
2021-02-03 22:00:00 11.5 8 Sur 12 Sur 0 -- -- 69
2021-02-03 21:00:00 12.7 8 Sudeste 10 Sur 0 -- -- 64
2021-02-03 20:00:00 12.8 6 Sur 10 Sur 0 -- -- 63
2021-02-03 19:00:00 12.7 5 Sur 12 Sur 0 -- -- 65
2021-02-03 18:00:00 13.3 8 Este 13 Nordeste 0 -- -- 64
2021-02-03 17:00:00 15.1 8 Norte 22 Noroeste 0 -- -- 59
2021-02-03 16:00:00 16 15 Oeste 31 Oeste 0 -- -- 56
2021-02-03 15:00:00 15.3 21 Oeste 30 Oeste 0 -- -- 56
2021-02-03 14:00:00 14.6 21 Oeste 28 Oeste 0 -- -- 57
2021-02-03 13:00:00 13.8 17 Oeste 30 Oeste 0 -- -- 57
2021-02-03 12:00:00 13.2 20 Oeste 28 Oeste 0 -- -- 56
2021-02-03 11:00:00 9.9 13 Oeste 16 Oeste 0 -- -- 67
2021-02-03 10:00:00 8.3 12 Oeste 19 Oeste 0 -- -- 67
2021-02-03 09:00:00 7.6 13 Oeste 20 Oeste 0 -- -- 71
2021-02-03 08:00:00 7.6 16 Oeste 23 Oeste 0 -- -- 71
2021-02-03 07:00:00 7.6 18 Oeste 24 Oeste 0 -- -- 72
2021-02-03 06:00:00 7.9 14 Oeste 20 Oeste 0 -- -- 72
2021-02-03 05:00:00 7.6 14 Oeste 23 Oeste 0 -- -- 76
2021-02-03 04:00:00 7.6 17 Oeste 23 Oeste 0 -- -- 78
2021-02-03 03:00:00 8.1 14 Oeste 18 Oeste 0 -- -- 77
2021-02-03 02:00:00 9 9 Oeste 16 Oeste 0 -- -- 74
2021-02-03 01:00:00 9.5 11 Oeste 15 Noroeste 0 -- -- 72
2021-02-03 00:00:00 10.1 9 Sur 10 Sur 0 -- -- 73
2021-02-02 23:00:00 9.8 10 Oeste 15 Oeste 0 -- -- 75
2021-02-02 22:00:00 10.5 9 Oeste 11 Sudoeste 0 -- -- 72
2021-02-02 21:00:00 11.3 8 Sudoeste 16 Sur 0 -- -- 70
2021-02-02 20:00:00 12.7 4 Sur 17 Sudeste 0 -- -- 65
2021-02-02 19:00:00 13.4 14 Este 22 Este 0 -- -- 63
2021-02-02 18:00:00 15.3 12 Este 24 Oeste 0 -- -- 56
2021-02-02 17:00:00 17.3 22 Oeste 28 Oeste 0 -- -- 46
2021-02-02 16:00:00 17.2 19 Oeste 31 Oeste 0 -- -- 50
2021-02-02 15:00:00 16.6 28 Oeste 42 Oeste 0 -- -- 52
2021-02-02 14:00:00 15.7 30 Oeste 45 Oeste 0 -- -- 54
2021-02-02 13:00:00 14.6 31 Oeste 49 Oeste 0 -- -- 58
2021-02-02 12:00:00 13.5 46 Oeste 58 Oeste 0 -- -- 63
2021-02-02 11:00:00 12.2 33 Oeste 48 Sudoeste 0 -- -- 68
2021-02-02 10:00:00 10.9 31 Oeste 49 Sudoeste 0 -- -- 73
2021-02-02 09:00:00 9.8 30 Oeste 46 Oeste 0 -- -- 76
2021-02-02 08:00:00 9.9 38 Oeste 46 Oeste 0 -- -- 74
2021-02-02 07:00:00 9.8 39 Sudoeste 56 Oeste 0 -- -- 75
2021-02-02 06:00:00 9.3 39 Oeste 53 Oeste 0 -- -- 77
2021-02-02 05:00:00 10 33 Oeste 43 Oeste 0 -- -- 73
2021-02-02 04:00:00 9.2 19 Oeste 63 Oeste 0 -- -- 74
2021-02-02 03:00:00 9.8 41 Oeste 65 Oeste 0 -- -- 71
2021-02-02 02:00:00 10.3 53 Oeste 64 Oeste 0 -- -- 68
2021-02-02 01:00:00 10.1 28 Oeste 49 Oeste 0 -- -- 69
2021-02-02 00:00:00 10.2 42 Oeste 53 Oeste 0 -- -- 68
2021-02-01 23:00:00 10.7 41 Oeste 57 Oeste 0 -- -- 67
2021-02-01 22:00:00 10.8 38 Oeste 58 Oeste 0 -- -- 67
2021-02-01 21:00:00 11.1 45 Oeste 59 Oeste 0 -- -- 66
2021-02-01 20:00:00 11.7 44 Oeste 55 Oeste 0 -- -- 66
2021-02-01 19:00:00 12.4 50 Oeste 72 Oeste 0 -- -- 64
2021-02-01 18:00:00 13.7 54 Oeste 72 Oeste 0 -- -- 58
2021-02-01 17:00:00 13.9 56 Oeste 73 Oeste 0 -- -- 58
2021-02-01 16:00:00 14.1 48 Oeste 75 Oeste 0 -- -- 57
2021-02-01 15:00:00 14.3 58 Oeste 81 Oeste 0 -- -- 55
2021-02-01 14:00:00 14.8 58 Oeste 81 Oeste 0 -- -- 51
2021-02-01 13:00:00 13.7 62 Oeste 85 Oeste 0 -- -- 51
2021-02-01 12:00:00 12.6 75 Oeste 97 Oeste 0 -- -- 55
2021-02-01 11:00:00 11.4 69 Oeste 93 Oeste 0 -- -- 59
2021-02-01 10:00:00 10.2 65 Oeste 86 Oeste 0 -- -- 63
2021-02-01 09:00:00 9.1 59 Oeste 84 Oeste 0 -- -- 66
2021-02-01 08:00:00 9 66 Oeste 91 Oeste 0 -- -- 66
2021-02-01 07:00:00 9.4 69 Oeste 91 Oeste 0 -- -- 65
2021-02-01 06:00:00 9.5 67 Oeste 87 Oeste 0 -- -- 65
2021-02-01 05:00:00 10.1 66 Oeste 87 Oeste 0 -- -- 62
2021-02-01 04:00:00 10.7 62 Oeste 100 Oeste 0 -- -- 60
2021-02-01 03:00:00 11.5 70 Oeste 91 Oeste 0 -- -- 58
2021-02-01 02:00:00 11.9 69 Oeste 99 Oeste 0 -- -- 56
2021-02-01 01:00:00 12.1 75 Oeste 103 Oeste 0 -- -- 56
2021-02-01 00:00:00 12.2 69 Oeste 111 Oeste 0 -- -- 62